createdAt,value
2024-04-18T00:00:58.881Z,100890.47
2024-04-18T00:03:25.566Z,100902.28
2024-04-18T00:05:52.207Z,100907.84
2024-04-18T00:08:18.709Z,100909.78
2024-04-18T00:10:45.322Z,100903.81
2024-04-18T00:13:11.909Z,100903.06
2024-04-18T00:15:39.380Z,100907.69
2024-04-18T00:18:08.635Z,100904.34
2024-04-18T00:20:35.264Z,100909.94
2024-04-18T00:23:01.792Z,100897.75
2024-04-18T00:25:31.949Z,100915.88
2024-04-18T00:27:58.483Z,100912.56
2024-04-18T00:30:25.691Z,100908.41
2024-04-18T00:32:52.265Z,100908.63
2024-04-18T00:35:21.698Z,100914.19
2024-04-18T00:37:48.250Z,100911.63
2024-04-18T00:40:14.801Z,100913.69
2024-04-18T00:42:42.045Z,100920.22
2024-04-18T00:45:08.761Z,100918.72
2024-04-18T00:47:35.461Z,100918.09
2024-04-18T00:50:02.736Z,100921.00
2024-04-18T00:52:32.547Z,100922.19
2024-04-18T00:54:59.161Z,100923.34
2024-04-18T00:57:25.748Z,100924.53
2024-04-18T00:59:52.732Z,100920.28
2024-04-18T01:02:20.602Z,100922.31
2024-04-18T01:04:47.317Z,100923.38
2024-04-18T01:07:13.857Z,100930.75
2024-04-18T01:09:43.136Z,100926.50
2024-04-18T01:12:09.750Z,100928.41
2024-04-18T01:14:36.336Z,100927.69
2024-04-18T01:17:03.300Z,100936.75
2024-04-18T01:19:29.919Z,100937.84
2024-04-18T01:21:59.462Z,100937.09
2024-04-18T01:24:27.880Z,100935.59
2024-04-18T01:26:57.124Z,100934.84
2024-04-18T01:29:23.734Z,100935.03
2024-04-18T01:31:50.345Z,100934.41
2024-04-18T01:34:17.020Z,100943.50
2024-04-18T01:36:44.712Z,100936.53
2024-04-18T01:39:11.344Z,100937.63
2024-04-18T01:41:37.919Z,100946.59
2024-04-18T01:44:07.203Z,100943.19
2024-04-18T01:46:33.811Z,100945.09
2024-04-18T01:49:00.562Z,100948.84
2024-04-18T01:51:27.264Z,100951.72
2024-04-18T01:53:53.811Z,100948.41
2024-04-18T01:56:20.374Z,100953.88
2024-04-18T01:58:47.078Z,100962.94
2024-04-18T02:01:16.451Z,100960.47
2024-04-18T02:03:43.315Z,100960.69
2024-04-18T02:06:09.907Z,100958.34
2024-04-18T02:08:36.446Z,100964.72
2024-04-18T02:11:03.185Z,100963.13
2024-04-18T02:13:29.798Z,100966.00
2024-04-18T02:15:56.369Z,100964.31
2024-04-18T02:18:25.681Z,100965.34
2024-04-18T02:20:52.339Z,100972.63
2024-04-18T02:23:18.926Z,100975.38
2024-04-18T02:25:45.484Z,100974.75
2024-04-18T02:28:12.061Z,100980.19
2024-04-18T02:30:38.736Z,100981.25
2024-04-18T02:33:05.421Z,100988.50
2024-04-18T02:35:34.805Z,100987.00
2024-04-18T02:38:01.405Z,100985.38
2024-04-18T02:40:27.949Z,100987.28
2024-04-18T02:42:54.497Z,100994.56
2024-04-18T02:45:21.086Z,100991.97
2024-04-18T02:47:47.732Z,100994.75
2024-04-18T02:50:14.417Z,100995.81
2024-04-18T02:52:43.696Z,100995.03
2024-04-18T02:55:10.249Z,101002.31
2024-04-18T02:57:36.914Z,100999.84
2024-04-18T03:00:03.726Z,100995.47
2024-04-18T03:02:30.328Z,100997.38
2024-04-18T03:04:56.911Z,101008.25
2024-04-18T03:07:23.453Z,101002.34
2024-04-18T03:09:52.837Z,101004.28
2024-04-18T03:12:19.418Z,100999.09
2024-04-18T03:14:45.985Z,101008.19
2024-04-18T03:17:12.550Z,101010.09
2024-04-18T03:19:39.101Z,101019.16
2024-04-18T03:22:05.893Z,101014.03
2024-04-18T03:24:32.459Z,101015.91
2024-04-18T03:27:01.753Z,101021.25
2024-04-18T03:29:28.317Z,101020.53
2024-04-18T03:31:54.860Z,101018.03
2024-04-18T03:34:21.457Z,101022.50
2024-04-18T03:36:48.065Z,101020.88
2024-04-18T03:39:14.793Z,101037.00
2024-04-18T03:41:41.382Z,101034.44
2024-04-18T03:44:10.605Z,101035.59
2024-04-18T03:46:37.197Z,101034.91
2024-04-18T03:49:03.789Z,101030.53
2024-04-18T03:51:30.445Z,101038.63
2024-04-18T03:53:57.013Z,101043.97
2024-04-18T03:56:23.533Z,101045.69
2024-04-18T03:58:50.269Z,101045.78
2024-04-18T04:01:19.639Z,101043.19
2024-04-18T04:03:46.389Z,101045.13
2024-04-18T04:06:13.022Z,101042.44
2024-04-18T04:08:39.610Z,101047.78
2024-04-18T04:11:06.234Z,101047.00
2024-04-18T04:13:32.966Z,101044.34
2024-04-18T04:15:59.712Z,101055.00
2024-04-18T04:18:29.086Z,101058.66
2024-04-18T04:20:55.787Z,101063.13
2024-04-18T04:23:22.552Z,101069.34
2024-04-18T04:25:49.071Z,101069.34
2024-04-18T04:28:15.634Z,101070.66
2024-04-18T04:30:42.213Z,101073.34
2024-04-18T04:33:08.819Z,101067.59
2024-04-18T04:35:38.084Z,101076.38
2024-04-18T04:38:04.604Z,101082.47
2024-04-18T04:40:31.143Z,101086.88
2024-04-18T04:43:00.465Z,101086.66
2024-04-18T04:45:27.361Z,101095.25
2024-04-18T04:47:54.092Z,101093.63
2024-04-18T04:50:20.794Z,101095.63
2024-04-18T04:52:50.074Z,101097.97
2024-04-18T04:55:16.615Z,101099.53
2024-04-18T04:57:43.272Z,101101.34
2024-04-18T05:00:10.244Z,101100.72
2024-04-18T05:02:39.170Z,101099.09
2024-04-18T05:05:06.751Z,101105.75
2024-04-18T05:07:33.560Z,101106.88
2024-04-18T05:10:02.890Z,101106.13
2024-04-18T05:12:29.517Z,101107.94
2024-04-18T05:14:56.262Z,101122.09
2024-04-18T05:17:22.841Z,101124.81
2024-04-18T05:19:49.337Z,101137.19
2024-04-18T05:22:15.917Z,101126.41
2024-04-18T05:24:42.565Z,101121.28
2024-04-18T05:27:11.884Z,101124.16
2024-04-18T05:29:38.479Z,101130.69
2024-04-18T05:32:05.150Z,101131.00
2024-04-18T05:34:31.799Z,101130.34
2024-04-18T05:36:58.387Z,101128.19
2024-04-18T05:39:25.066Z,101127.50
2024-04-18T05:41:51.598Z,101132.22
2024-04-18T05:44:20.830Z,101136.91
2024-04-18T05:46:47.416Z,101140.50
2024-04-18T05:49:14.228Z,101160.69
2024-04-18T05:51:43.740Z,101167.53
2024-04-18T05:54:10.302Z,101158.03
2024-04-18T05:56:36.930Z,101168.09
2024-04-18T05:59:03.520Z,101164.53
2024-04-18T06:01:32.784Z,101160.19
2024-04-18T06:03:59.545Z,101159.50
2024-04-18T06:06:26.215Z,101160.38
2024-04-18T06:08:52.786Z,101167.28
2024-04-18T06:11:19.419Z,101164.25
2024-04-18T06:13:45.985Z,101161.59
2024-04-18T06:16:12.546Z,101163.31
2024-04-18T06:18:41.823Z,101174.81
2024-04-18T06:21:08.431Z,101175.94
2024-04-18T06:23:35.022Z,101173.25
2024-04-18T06:26:01.584Z,101174.81
2024-04-18T06:28:28.199Z,101178.13
2024-04-18T06:30:54.857Z,101187.56
2024-04-18T06:33:21.604Z,101188.53
2024-04-18T06:35:50.832Z,101175.25
2024-04-18T06:38:17.540Z,101185.97
2024-04-18T06:40:44.091Z,101184.75
2024-04-18T06:43:10.716Z,101199.81
2024-04-18T06:45:37.328Z,101196.66
2024-04-18T06:48:04.333Z,101201.56
2024-04-18T06:50:30.906Z,101197.84
2024-04-18T06:53:00.259Z,101198.50
2024-04-18T06:55:26.876Z,101191.19
2024-04-18T06:57:53.561Z,101202.25
2024-04-18T07:00:20.492Z,101199.22
2024-04-18T07:02:47.089Z,101201.72
2024-04-18T07:05:13.804Z,101201.50
2024-04-18T07:07:40.368Z,101204.16
2024-04-18T07:10:09.911Z,101198.53
2024-04-18T07:12:36.497Z,101207.38
2024-04-18T07:15:03.152Z,101208.41
2024-04-18T07:17:29.836Z,101212.72
2024-04-18T07:19:56.406Z,101207.06
2024-04-18T07:22:23.188Z,101211.59
2024-04-18T07:24:49.795Z,101216.16
2024-04-18T07:27:19.158Z,101212.47
2024-04-18T07:29:45.890Z,101213.63
2024-04-18T07:32:12.708Z,101218.19
2024-04-18T07:34:44.077Z,101217.91
2024-04-18T07:37:10.727Z,101220.16
2024-04-18T07:39:37.393Z,101222.75
2024-04-18T07:42:04.232Z,101219.63
2024-04-18T07:44:33.564Z,101221.06
2024-04-18T07:47:00.381Z,101211.38
2024-04-18T07:49:27.035Z,101223.63
2024-04-18T07:51:56.891Z,101220.06
2024-04-18T07:54:23.909Z,101218.75
2024-04-18T07:56:50.962Z,101223.59
2024-04-18T07:59:18.917Z,101223.16
2024-04-18T08:01:50.463Z,101229.09
2024-04-18T08:04:35.375Z,101241.03
2024-04-18T08:07:07.654Z,101233.78
2024-04-18T08:09:38.581Z,101236.22
2024-04-18T08:12:23.895Z,101244.19
2024-04-18T08:14:57.911Z,101242.88
2024-04-18T08:17:30.017Z,101235.75
2024-04-18T08:19:56.852Z,101235.22
2024-04-18T08:22:23.832Z,101242.91
2024-04-18T08:24:50.428Z,101241.53
2024-04-18T08:27:17.063Z,101244.22
2024-04-18T08:29:43.651Z,101231.56
2024-04-18T08:32:10.280Z,101239.16
2024-04-18T08:34:42.337Z,101238.28
2024-04-18T08:37:10.257Z,101239.84
2024-04-18T08:39:36.943Z,101236.59
2024-04-18T08:42:04.976Z,101238.03
2024-04-18T08:44:31.835Z,101234.78
2024-04-18T08:46:59.286Z,101230.41
2024-04-18T08:49:26.824Z,101233.66
2024-04-18T08:51:56.463Z,101236.06
2024-04-18T08:54:23.034Z,101242.16
2024-04-18T08:56:50.872Z,101245.28
2024-04-18T08:59:17.722Z,101235.91
2024-04-18T09:01:45.772Z,101238.84
2024-04-18T09:04:12.403Z,101235.59
2024-04-18T09:06:38.984Z,101241.84
2024-04-18T09:09:12.228Z,101241.31
2024-04-18T09:11:38.839Z,101236.25
2024-04-18T09:14:06.490Z,101226.84
2024-04-18T09:16:33.786Z,101231.41
2024-04-18T09:19:00.371Z,101227.44
2024-04-18T09:21:28.262Z,101230.81
2024-04-18T09:23:54.938Z,101218.56
2024-04-18T09:26:26.303Z,101223.41
2024-04-18T09:28:52.855Z,101228.09
2024-04-18T09:31:27.262Z,101224.13
2024-04-18T09:33:57.849Z,101226.56
2024-04-18T09:36:24.484Z,101232.28
2024-04-18T09:38:51.182Z,101234.56
2024-04-18T09:41:20.907Z,101239.81
2024-04-18T09:43:56.584Z,101234.00
2024-04-18T09:46:23.874Z,101230.44
2024-04-18T09:48:51.454Z,101232.97
2024-04-18T09:51:18.345Z,101233.25
2024-04-18T09:53:45.728Z,101233.41
2024-04-18T09:56:12.611Z,101226.56
2024-04-18T09:58:39.229Z,101230.50
2024-04-18T10:01:09.744Z,101233.38
2024-04-18T10:03:36.641Z,101226.53
2024-04-18T10:06:05.025Z,101234.66
2024-04-18T10:08:33.639Z,101235.50
2024-04-18T10:11:00.733Z,101228.22
2024-04-18T10:13:27.503Z,101241.50
2024-04-18T10:16:03.660Z,101238.59
2024-04-18T10:18:37.755Z,101233.00
2024-04-18T10:21:07.549Z,101237.81
2024-04-18T10:23:34.184Z,101233.47
2024-04-18T10:26:00.781Z,101236.44
2024-04-18T10:28:27.348Z,101235.59
2024-04-18T10:31:00.931Z,101241.59
2024-04-18T10:33:28.186Z,101235.47
2024-04-18T10:35:57.733Z,101238.91
2024-04-18T10:38:24.738Z,101242.97
2024-04-18T10:40:59.931Z,101238.16
2024-04-18T10:43:27.921Z,101238.50
2024-04-18T10:45:54.618Z,101238.38
2024-04-18T10:48:21.482Z,101239.66
2024-04-18T10:50:48.976Z,101234.25
2024-04-18T10:53:18.639Z,101242.19
2024-04-18T10:55:45.303Z,101233.50
2024-04-18T10:58:12.232Z,101229.94
2024-04-18T11:00:38.823Z,101233.63
2024-04-18T11:03:05.601Z,101233.59
2024-04-18T11:05:32.208Z,101228.41
2024-04-18T11:07:58.871Z,101226.94
2024-04-18T11:10:28.387Z,101229.47
2024-04-18T11:12:55.107Z,101230.91
2024-04-18T11:15:21.706Z,101225.59
2024-04-18T11:17:48.318Z,101226.28
2024-04-18T11:20:15.013Z,101219.47
2024-04-18T11:22:44.344Z,101221.91
2024-04-18T11:25:15.575Z,101218.47
2024-04-18T11:27:44.846Z,101215.69
2024-04-18T11:30:15.097Z,101219.00
2024-04-18T11:32:41.788Z,101221.50
2024-04-18T11:35:15.686Z,101226.75
2024-04-18T11:37:46.126Z,101216.94
2024-04-18T11:40:12.785Z,101214.22
2024-04-18T11:42:39.467Z,101214.97
2024-04-18T11:45:09.138Z,101213.13
2024-04-18T11:47:36.187Z,101209.34
2024-04-18T11:50:02.796Z,101206.34
2024-04-18T11:52:29.337Z,101197.00
2024-04-18T11:54:55.933Z,101193.47
2024-04-18T11:57:22.829Z,101184.78
2024-04-18T11:59:49.378Z,101180.25
2024-04-18T12:02:18.642Z,101182.97
2024-04-18T12:04:45.265Z,101183.84
2024-04-18T12:07:20.690Z,101183.56
2024-04-18T12:09:47.314Z,101179.16
2024-04-18T12:12:13.881Z,101184.09
2024-04-18T12:14:40.471Z,101179.53
2024-04-18T12:17:07.103Z,101184.97
2024-04-18T12:19:36.296Z,101191.75
2024-04-18T12:22:02.828Z,101192.72
2024-04-18T12:24:29.448Z,101188.13
2024-04-18T12:26:56.079Z,101188.28
2024-04-18T12:29:22.618Z,101185.31
2024-04-18T12:31:49.216Z,101197.44
2024-04-18T12:34:15.826Z,101187.03
2024-04-18T12:36:45.044Z,101185.88
2024-04-18T12:39:11.741Z,101179.88
2024-04-18T12:41:38.361Z,101184.25
2024-04-18T12:44:05.086Z,101186.63
2024-04-18T12:46:31.832Z,101184.94
2024-04-18T12:48:58.814Z,101181.91
2024-04-18T12:51:25.632Z,101181.41
2024-04-18T12:53:57.078Z,101188.56
2024-04-18T12:56:24.348Z,101188.41
2024-04-18T12:58:51.032Z,101184.16
2024-04-18T13:01:17.883Z,101185.19
2024-04-18T13:03:45.145Z,101180.94
2024-04-18T13:06:12.479Z,101172.41
2024-04-18T13:08:39.069Z,101175.44
2024-04-18T13:11:08.297Z,101179.53
2024-04-18T13:13:34.983Z,101166.94
2024-04-18T13:16:03.195Z,101167.94
2024-04-18T13:18:30.288Z,101170.66
2024-04-18T13:20:56.972Z,101166.38
2024-04-18T13:23:23.550Z,101160.31
2024-04-18T13:25:50.095Z,101163.50
2024-04-18T13:28:20.096Z,101169.47
2024-04-18T13:30:46.716Z,101168.16
2024-04-18T13:33:13.448Z,101163.13
2024-04-18T13:35:40.212Z,101165.19
2024-04-18T13:38:06.775Z,101164.50
2024-04-18T13:40:33.361Z,101157.38
2024-04-18T13:43:00.039Z,101162.31
2024-04-18T13:45:29.376Z,101156.72
2024-04-18T13:47:56.203Z,101147.31
2024-04-18T13:50:22.931Z,101145.75
2024-04-18T13:52:49.605Z,101146.56
2024-04-18T13:55:16.231Z,101140.22
2024-04-18T13:57:42.926Z,101138.94
2024-04-18T14:00:10.106Z,101141.34
2024-04-18T14:02:39.378Z,101135.81
2024-04-18T14:05:06.488Z,101129.25
2024-04-18T14:07:33.048Z,101137.88
2024-04-18T14:09:59.578Z,101130.66
2024-04-18T14:12:26.269Z,101134.59
2024-04-18T14:14:52.804Z,101133.13
2024-04-18T14:17:19.496Z,101131.09
2024-04-18T14:19:48.711Z,101122.88
2024-04-18T14:22:15.291Z,101116.69
2024-04-18T14:24:41.979Z,101121.06
2024-04-18T14:27:08.696Z,101117.69
2024-04-18T14:29:35.278Z,101112.56
2024-04-18T14:32:02.712Z,101126.09
2024-04-18T14:34:29.605Z,101121.69
2024-04-18T14:36:59.020Z,101119.19
2024-04-18T14:39:25.667Z,101125.03
2024-04-18T14:41:52.215Z,101132.72
2024-04-18T14:44:18.794Z,101129.69
2024-04-18T14:46:45.338Z,101124.06
2024-04-18T14:49:11.945Z,101119.13
2024-04-18T14:51:38.598Z,101119.97
2024-04-18T14:54:07.932Z,101122.00
2024-04-18T14:56:34.503Z,101121.84
2024-04-18T14:59:01.114Z,101116.91
2024-04-18T15:01:27.650Z,101126.13
2024-04-18T15:03:54.350Z,101124.94
2024-04-18T15:06:21.206Z,101117.63
2024-04-18T15:08:47.751Z,101116.91
2024-04-18T15:11:17.419Z,101121.84
2024-04-18T15:13:44.005Z,101119.44
2024-04-18T15:16:10.693Z,101109.91
2024-04-18T15:18:37.630Z,101116.56
2024-04-18T15:21:04.530Z,101112.13
2024-04-18T15:23:31.117Z,101115.03
2024-04-18T15:25:57.700Z,101120.47
2024-04-18T15:28:26.890Z,101108.53
2024-04-18T15:30:53.536Z,101112.97
2024-04-18T15:33:20.205Z,101108.72
2024-04-18T15:35:46.804Z,101111.81
2024-04-18T15:38:13.364Z,101097.69
2024-04-18T15:40:40.055Z,101107.03
2024-04-18T15:43:06.838Z,101110.25
2024-04-18T15:45:39.152Z,101104.31
2024-04-18T15:48:06.416Z,101115.03
2024-04-18T15:50:33.359Z,101108.03
2024-04-18T15:52:59.924Z,101109.59
2024-04-18T15:55:26.596Z,101111.78
2024-04-18T15:57:53.143Z,101106.81
2024-04-18T16:00:19.815Z,101106.66
2024-04-18T16:02:51.786Z,101111.38
2024-04-18T16:05:20.005Z,101110.66
2024-04-18T16:07:46.734Z,101102.69
2024-04-18T16:10:13.433Z,101102.00
2024-04-18T16:12:40.110Z,101101.88
2024-04-18T16:15:07.111Z,101110.75
2024-04-18T16:17:34.139Z,101106.31
2024-04-18T16:20:03.549Z,101105.00
2024-04-18T16:22:30.102Z,101107.38
2024-04-18T16:24:56.647Z,101102.28
2024-04-18T16:27:23.500Z,101101.59
2024-04-18T16:29:50.087Z,101094.63
2024-04-18T16:32:16.631Z,101098.16
2024-04-18T16:34:43.147Z,101092.22
2024-04-18T16:37:15.121Z,101094.78
2024-04-18T16:39:43.960Z,101097.31
2024-04-18T16:42:10.690Z,101092.22
2024-04-18T16:44:37.289Z,101090.69
2024-04-18T16:47:04.074Z,101091.69
2024-04-18T16:49:30.665Z,101090.84
2024-04-18T16:51:57.406Z,101087.97
2024-04-18T16:54:26.814Z,101094.06
2024-04-18T16:56:53.400Z,101094.41
2024-04-18T16:59:19.940Z,101086.25
2024-04-18T17:01:46.612Z,101087.59
2024-04-18T17:04:13.346Z,101086.41
2024-04-18T17:06:47.294Z,101098.13
2024-04-18T17:09:15.618Z,101094.34
2024-04-18T17:11:44.971Z,101099.75
2024-04-18T17:14:11.570Z,101092.25
2024-04-18T17:16:38.123Z,101089.19
2024-04-18T17:19:04.762Z,101091.53
2024-04-18T17:21:31.464Z,101090.81
2024-04-18T17:23:58.215Z,101083.63
2024-04-18T17:26:27.416Z,101082.56
2024-04-18T17:28:58.304Z,101078.78
2024-04-18T17:31:25.011Z,101083.88
2024-04-18T17:33:51.867Z,101082.50
2024-04-18T17:36:18.523Z,101076.69
2024-04-18T17:38:45.987Z,101080.91
2024-04-18T17:41:12.581Z,101079.00
2024-04-18T17:43:39.193Z,101086.91
2024-04-18T17:46:08.634Z,101081.56
2024-04-18T17:48:35.370Z,101084.25
2024-04-18T17:51:02.020Z,101084.19
2024-04-18T17:53:28.535Z,101084.97
2024-04-18T17:55:55.534Z,101089.50
2024-04-18T17:58:22.142Z,101084.00
2024-04-18T18:00:49.102Z,101088.50
2024-04-18T18:03:18.628Z,101093.28
2024-04-18T18:05:45.326Z,101085.94
2024-04-18T18:08:11.878Z,101099.28
2024-04-18T18:10:38.553Z,101097.16
2024-04-18T18:13:05.169Z,101094.03
2024-04-18T18:15:31.772Z,101094.47
2024-04-18T18:17:58.536Z,101112.22
2024-04-18T18:20:27.802Z,101119.69
2024-04-18T18:22:54.458Z,101120.38
2024-04-18T18:25:20.993Z,101123.44
2024-04-18T18:27:47.592Z,101129.88
2024-04-18T18:30:14.387Z,101134.19
2024-04-18T18:32:41.182Z,101133.34
2024-04-18T18:35:07.860Z,101136.81
2024-04-18T18:37:37.097Z,101134.53
2024-04-18T18:40:03.943Z,101137.56
2024-04-18T18:42:30.624Z,101139.66
2024-04-18T18:44:57.297Z,101131.97
2024-04-18T18:47:23.882Z,101129.44
2024-04-18T18:49:50.608Z,101129.75
2024-04-18T18:52:17.156Z,101130.19
2024-04-18T18:54:46.488Z,101135.72
2024-04-18T18:57:13.178Z,101136.03
2024-04-18T18:59:42.378Z,101127.19
2024-04-18T19:02:08.960Z,101128.34
2024-04-18T19:04:35.757Z,101131.31
2024-04-18T19:07:02.597Z,101128.91
2024-04-18T19:09:29.287Z,101122.81
2024-04-18T19:11:58.595Z,101119.38
2024-04-18T19:14:25.138Z,101114.97
2024-04-18T19:16:51.779Z,101118.81
2024-04-18T19:19:18.344Z,101119.81
2024-04-18T19:21:44.974Z,101127.06
2024-04-18T19:24:11.525Z,101121.97
2024-04-18T19:26:38.080Z,101123.94
2024-04-18T19:29:07.279Z,101109.00
2024-04-18T19:31:33.864Z,101116.41
2024-04-18T19:34:00.967Z,101115.56
2024-04-18T19:36:27.746Z,101114.28
2024-04-18T19:38:54.366Z,101117.41
2024-04-18T19:41:21.145Z,101123.22
2024-04-18T19:43:47.725Z,101122.94
2024-04-18T19:46:17.102Z,101118.94
2024-04-18T19:48:43.810Z,101123.22
2024-04-18T19:51:10.420Z,101122.78
2024-04-18T19:53:37.011Z,101113.38
2024-04-18T19:56:03.741Z,101116.38
2024-04-18T19:58:30.269Z,101111.22
2024-04-18T20:00:57.087Z,101113.38
2024-04-18T20:03:26.703Z,101116.34
2024-04-18T20:05:53.386Z,101124.88
2024-04-18T20:08:20.013Z,101119.19
2024-04-18T20:10:46.519Z,101120.44
2024-04-18T20:13:13.087Z,101122.56
2024-04-18T20:15:39.986Z,101120.28
2024-04-18T20:18:07.004Z,101122.28
2024-04-18T20:20:36.327Z,101112.88
2024-04-18T20:23:02.954Z,101124.81
2024-04-18T20:25:29.585Z,101119.66
2024-04-18T20:27:56.321Z,101126.09
2024-04-18T20:30:22.928Z,101134.44
2024-04-18T20:32:49.549Z,101132.72
2024-04-18T20:35:16.135Z,101125.63
2024-04-18T20:37:45.338Z,101125.88
2024-04-18T20:40:11.901Z,101127.75
2024-04-18T20:42:38.565Z,101131.44
2024-04-18T20:45:05.706Z,101127.88
2024-04-18T20:47:32.743Z,101126.28
2024-04-18T20:49:59.454Z,101123.75
2024-04-18T20:52:26.079Z,101125.47
2024-04-18T20:54:55.289Z,101128.16
2024-04-18T20:57:24.371Z,101123.75
2024-04-18T20:59:53.528Z,101118.34
2024-04-18T21:02:20.106Z,101126.44
2024-04-18T21:04:46.668Z,101117.50
2024-04-18T21:07:13.325Z,101116.63
2024-04-18T21:09:39.918Z,101117.63
2024-04-18T21:12:09.506Z,101113.09
2024-04-18T21:14:36.089Z,101113.25
2024-04-18T21:17:02.730Z,101114.22
2024-04-18T21:19:29.293Z,101115.22
2024-04-18T21:21:55.883Z,101103.69
2024-04-18T21:24:22.569Z,101101.13
2024-04-18T21:26:49.461Z,101103.38
2024-04-18T21:29:18.733Z,101100.09
2024-04-18T21:31:45.334Z,101106.78
2024-04-18T21:34:12.270Z,101103.63
2024-04-18T21:36:39.223Z,101113.94
2024-04-18T21:39:05.923Z,101107.13
2024-04-18T21:41:32.660Z,101109.34
2024-04-18T21:43:59.296Z,101115.16
2024-04-18T21:46:28.561Z,101107.47
2024-04-18T21:48:55.294Z,101108.13
2024-04-18T21:51:21.953Z,101096.03
2024-04-18T21:53:48.501Z,101093.72
2024-04-18T21:56:15.413Z,101091.44
2024-04-18T21:58:42.134Z,101078.22
2024-04-18T22:01:08.825Z,101083.91
2024-04-18T22:03:38.328Z,101079.75
2024-04-18T22:06:07.788Z,101088.94
2024-04-18T22:08:34.595Z,101091.03
2024-04-18T22:11:01.154Z,101082.47
2024-04-18T22:13:27.768Z,101081.75
2024-04-18T22:15:54.429Z,101078.44
2024-04-18T22:18:21.080Z,101075.16
2024-04-18T22:20:50.368Z,101076.19
2024-04-18T22:23:17.027Z,101078.13
2024-04-18T22:25:43.765Z,101072.16
2024-04-18T22:28:10.336Z,101065.31
2024-04-18T22:30:37.107Z,101070.94
2024-04-18T22:33:04.014Z,101065.84
2024-04-18T22:35:30.678Z,101068.06
2024-04-18T22:38:00.108Z,101069.44
2024-04-18T22:40:26.674Z,101058.91
2024-04-18T22:42:53.283Z,101063.59
2024-04-18T22:45:19.859Z,101053.06
2024-04-18T22:47:46.676Z,101058.59
2024-04-18T22:50:13.298Z,101047.94
2024-04-18T22:52:39.983Z,101048.91
2024-04-18T22:55:09.441Z,101044.53
2024-04-18T22:57:36.126Z,101041.09
2024-04-18T23:00:02.790Z,101045.78
2024-04-18T23:02:29.383Z,101034.28
2024-04-18T23:04:56.034Z,101041.59
2024-04-18T23:07:22.662Z,101042.72
2024-04-18T23:09:49.265Z,101039.44
2024-04-18T23:12:18.634Z,101036.00
2024-04-18T23:14:45.438Z,101037.13
2024-04-18T23:17:12.146Z,101030.91
2024-04-18T23:19:38.728Z,101031.88
2024-04-18T23:22:05.461Z,101032.03
2024-04-18T23:24:32.121Z,101024.78
2024-04-18T23:26:58.833Z,101024.78
2024-04-18T23:29:28.331Z,101020.41
2024-04-18T23:31:55.023Z,101019.38
2024-04-18T23:34:21.589Z,101011.31
2024-04-18T23:36:48.170Z,100999.72
2024-04-18T23:39:14.819Z,101009.63
2024-04-18T23:41:41.469Z,101010.59
2024-04-18T23:44:08.280Z,101007.16
2024-04-18T23:46:37.562Z,101007.16
2024-04-18T23:49:04.234Z,101006.47
2024-04-18T23:51:30.849Z,101003.03
2024-04-18T23:53:57.451Z,100995.09
2024-04-18T23:56:23.976Z,100987.16
2024-04-18T23:58:50.607Z,100996.19
